Time;durP1;ratioP1;P1;durP2;ratioP2;P2;SDS_P1;SDS_P2;PMS_P1;PMS_P2;Temp;Humidity;BMP_temperature;BMP_pressure;BME280_temperature;BME280_humidity;BME280_pressure;Samples;Min_cycle;Max_cycle;Signal;HPM_P1;HPM_P2
2022/10/17 00:00:48;;;;;;;11.07;6.25;;;;;;;;;;5011615;28;20120;-78
2022/10/17 00:03:14;;;;;;;11.85;6.65;;;;;;;;;;5011782;28;20029;-77
2022/10/17 00:05:44;;;;;;;11.00;5.78;;;;;;;;;;4996389;28;20038;-77
2022/10/17 00:08:12;;;;;;;9.60;5.68;;;;;;;;;;5000964;28;20104;-78
2022/10/17 00:10:38;;;;;;;10.52;5.70;;;;;;;;;;5011908;28;20104;-77
2022/10/17 00:13:04;;;;;;;10.27;5.85;;;;;;;;;;5011646;28;20453;-77
2022/10/17 00:15:30;;;;;;;9.52;5.68;;;;;;;;;;4994249;28;20444;-77
2022/10/17 00:17:56;;;;;;;8.50;5.70;;;;;;;;;;5011803;28;20483;-79
2022/10/17 00:20:22;;;;;;;12.13;5.85;;;;;;;;;;5011951;28;20402;-79
2022/10/17 00:22:48;;;;;;;12.52;7.20;;;;;;;;;;5012068;28;20022;-80
2022/10/17 00:25:14;;;;;;;10.45;6.40;;;;;;;;;;5011745;28;20063;-80
2022/10/17 00:27:41;;;;;;;10.38;6.80;;;;;;;;;;5011555;28;20049;-80
2022/10/17 00:30:09;;;;;;;13.05;8.15;;;;;;;;;;5011856;28;20421;-79
2022/10/17 00:32:35;;;;;;;11.63;7.18;;;;;;;;;;4993595;28;20056;-78
2022/10/17 00:35:02;;;;;;;14.63;8.30;;;;;;;;;;5011296;28;20034;-79
2022/10/17 00:37:29;;;;;;;13.38;8.40;;;;;;;;;;5010874;28;20029;-80
2022/10/17 00:39:55;;;;;;;15.32;7.78;;;;;;;;;;5011185;28;20064;-79
2022/10/17 00:42:23;;;;;;;17.33;8.88;;;;;;;;;;5011106;28;20377;-78
2022/10/17 00:44:49;;;;;;;17.30;8.15;;;;;;;;;;5009737;28;20025;-80
2022/10/17 00:47:18;;;;;;;12.18;7.75;;;;;;;;;;5010883;28;20018;-78
2022/10/17 00:49:45;;;;;;;13.02;8.02;;;;;;;;;;4993549;28;20034;-78
2022/10/17 00:52:21;;;;;;;13.35;8.77;;;;;;;;;;5012022;28;20038;-77
2022/10/17 00:54:56;;;;;;;13.77;8.60;;;;;;;;;;5015574;28;20033;-77
2022/10/17 00:57:22;;;;;;;15.02;8.90;;;;;;;;;;4997680;28;20473;-79
2022/10/17 00:59:50;;;;;;;14.38;8.23;;;;;;;;;;5015367;28;20424;-80
2022/10/17 01:02:17;;;;;;;11.70;7.43;;;;;;;;;;5015081;28;20037;-78
2022/10/17 01:04:45;;;;;;;16.17;9.07;;;;;;;;;;5009823;28;20125;-78
2022/10/17 01:07:11;;;;;;;11.50;8.18;;;;;;;;;;4997183;28;20053;-77
2022/10/17 01:09:37;;;;;;;12.23;8.15;;;;;;;;;;5015122;28;20033;-77
2022/10/17 01:12:03;;;;;;;13.85;8.48;;;;;;;;;;5014848;28;20104;-78
2022/10/17 01:14:39;;;;;;;13.50;8.30;;;;;;;;;;5015204;28;20346;-77
2022/10/17 01:17:20;;;;;;;14.80;9.18;;;;;;;;;;5014897;28;20033;-77
2022/10/17 01:20:05;;;;;;;10.38;7.85;;;;;;;;;;5014946;28;20026;-78
2022/10/17 01:22:45;;;;;;;16.15;9.02;;;;;;;;;;5014652;28;20507;-78
2022/10/17 01:25:19;;;;;;;12.85;8.75;;;;;;;;;;5014782;28;20026;-78
2022/10/17 01:27:52;;;;;;;16.63;8.35;;;;;;;;;;5014438;28;20087;-77
2022/10/17 01:30:19;;;;;;;14.95;9.15;;;;;;;;;;5014452;28;20116;-77
2022/10/17 01:32:47;;;;;;;16.55;8.88;;;;;;;;;;5014558;28;20120;-77
2022/10/17 01:35:25;;;;;;;14.70;9.20;;;;;;;;;;5014424;28;20029;-78
2022/10/17 01:38:09;;;;;;;16.05;9.90;;;;;;;;;;5012672;28;20049;-77
2022/10/17 01:40:39;;;;;;;12.75;8.32;;;;;;;;;;5013754;28;20551;-77
2022/10/17 01:43:07;;;;;;;12.60;8.15;;;;;;;;;;5014127;28;20053;-77
2022/10/17 01:45:51;;;;;;;14.20;8.45;;;;;;;;;;5014729;28;20022;-77
2022/10/17 01:48:19;;;;;;;14.38;8.88;;;;;;;;;;5014439;28;20022;-77
2022/10/17 01:50:48;;;;;;;12.52;8.52;;;;;;;;;;5014332;28;20531;-77
2022/10/17 01:53:18;;;;;;;14.68;8.55;;;;;;;;;;5013517;28;20097;-77
2022/10/17 01:55:46;;;;;;;13.82;8.05;;;;;;;;;;4994431;28;20022;-78
2022/10/17 01:58:14;;;;;;;12.65;8.88;;;;;;;;;;4977045;28;20160;-78
2022/10/17 02:00:42;;;;;;;13.20;8.45;;;;;;;;;;4994512;28;20076;-78
2022/10/17 02:03:10;;;;;;;14.60;8.52;;;;;;;;;;4976535;28;20019;-78
2022/10/17 02:05:38;;;;;;;16.35;9.25;;;;;;;;;;4999492;28;20025;-78
2022/10/17 02:08:04;;;;;;;13.07;8.93;;;;;;;;;;4994535;28;20030;-77
2022/10/17 02:10:37;;;;;;;12.20;8.27;;;;;;;;;;4993135;28;20505;-77
2022/10/17 02:13:29;;;;;;;14.48;8.80;;;;;;;;;;4994316;28;20018;-77
2022/10/17 02:15:55;;;;;;;12.35;8.45;;;;;;;;;;4991496;28;20043;-77
2022/10/17 02:18:24;;;;;;;15.82;8.73;;;;;;;;;;4994111;28;20031;-77
2022/10/17 02:20:57;;;;;;;13.80;8.43;;;;;;;;;;4994001;28;20030;-77
2022/10/17 02:23:28;;;;;;;12.35;8.73;;;;;;;;;;4993928;28;20113;-77
2022/10/17 02:26:04;;;;;;;18.02;10.05;;;;;;;;;;4993738;28;20102;-77
2022/10/17 02:28:34;;;;;;;27.70;9.98;;;;;;;;;;4993832;28;20031;-77
2022/10/17 02:31:15;;;;;;;17.55;10.07;;;;;;;;;;4993835;28;20370;-77
2022/10/17 02:33:48;;;;;;;20.10;11.93;;;;;;;;;;4993921;28;20034;-78
2022/10/17 02:36:16;;;;;;;14.48;10.60;;;;;;;;;;4993935;28;20117;-77
2022/10/17 02:38:44;;;;;;;21.33;10.52;;;;;;;;;;4992223;28;20080;-77
2022/10/17 02:41:11;;;;;;;14.38;9.43;;;;;;;;;;4993586;28;20437;-77
2022/10/17 02:43:37;;;;;;;15.68;10.07;;;;;;;;;;5000505;28;20017;-77
2022/10/17 02:46:04;;;;;;;16.90;10.95;;;;;;;;;;5013156;28;20026;-77
2022/10/17 02:48:42;;;;;;;15.27;9.57;;;;;;;;;;5013194;28;20026;-77
2022/10/17 02:51:14;;;;;;;14.60;10.55;;;;;;;;;;4995487;28;20025;-77
2022/10/17 02:53:40;;;;;;;18.75;10.48;;;;;;;;;;5013132;28;20033;-77
2022/10/17 02:56:10;;;;;;;19.58;10.50;;;;;;;;;;5013236;28;20026;-79
2022/10/17 02:58:37;;;;;;;18.17;10.93;;;;;;;;;;5013016;28;20080;-78
2022/10/17 03:01:04;;;;;;;19.20;11.88;;;;;;;;;;5012748;28;20461;-79
2022/10/17 03:03:31;;;;;;;16.10;10.65;;;;;;;;;;5012850;28;20088;-78
2022/10/17 03:05:57;;;;;;;17.30;11.48;;;;;;;;;;5010840;28;20025;-77
2022/10/17 03:08:24;;;;;;;19.92;12.65;;;;;;;;;;5001642;28;20112;-77
2022/10/17 03:10:50;;;;;;;22.52;12.20;;;;;;;;;;4993332;28;20076;-77
2022/10/17 03:13:16;;;;;;;18.30;11.85;;;;;;;;;;4993301;28;20069;-77
2022/10/17 03:15:42;;;;;;;18.05;11.50;;;;;;;;;;4992884;28;20030;-77
2022/10/17 03:18:09;;;;;;;17.08;11.00;;;;;;;;;;4993023;28;20105;-77
2022/10/17 03:20:35;;;;;;;18.13;10.43;;;;;;;;;;4992949;28;20100;-77
2022/10/17 03:23:01;;;;;;;16.48;10.25;;;;;;;;;;4993154;28;20524;-77
2022/10/17 03:25:27;;;;;;;16.55;10.80;;;;;;;;;;5010925;28;20034;-77
2022/10/17 03:27:53;;;;;;;13.50;10.05;;;;;;;;;;5012635;28;20054;-77
2022/10/17 03:30:20;;;;;;;21.05;10.55;;;;;;;;;;5012591;28;20147;-79
2022/10/17 03:32:46;;;;;;;15.32;11.25;;;;;;;;;;5012663;28;20057;-79
2022/10/17 03:35:12;;;;;;;16.75;10.60;;;;;;;;;;5012624;28;20369;-78
2022/10/17 03:37:38;;;;;;;16.33;9.98;;;;;;;;;;5012094;28;20029;-78
2022/10/17 03:40:04;;;;;;;14.82;10.32;;;;;;;;;;4994536;28;20485;-77
2022/10/17 03:42:31;;;;;;;23.23;11.00;;;;;;;;;;5012266;28;20030;-77
2022/10/17 03:44:57;;;;;;;24.40;10.65;;;;;;;;;;4977180;28;20022;-77
2022/10/17 03:47:23;;;;;;;16.23;10.32;;;;;;;;;;4992637;28;20054;-77
2022/10/17 03:49:49;;;;;;;13.30;9.38;;;;;;;;;;4992899;28;20030;-77
2022/10/17 03:52:15;;;;;;;17.38;9.82;;;;;;;;;;4995607;28;20363;-78
2022/10/17 03:54:41;;;;;;;17.60;9.98;;;;;;;;;;4977281;28;20496;-78
2022/10/17 03:57:07;;;;;;;18.40;10.30;;;;;;;;;;5006010;28;20393;-78
2022/10/17 03:59:33;;;;;;;13.90;10.00;;;;;;;;;;5002938;28;20488;-77
2022/10/17 04:01:59;;;;;;;13.55;9.02;;;;;;;;;;4995620;28;20042;-77
2022/10/17 04:04:25;;;;;;;20.15;9.88;;;;;;;;;;4994709;28;20035;-77
2022/10/17 04:06:51;;;;;;;16.10;9.18;;;;;;;;;;5005030;28;20036;-77
2022/10/17 04:09:17;;;;;;;18.23;10.13;;;;;;;;;;4993987;28;20033;-77
2022/10/17 04:11:44;;;;;;;15.25;9.55;;;;;;;;;;4996096;28;20026;-77
2022/10/17 04:14:10;;;;;;;15.02;8.98;;;;;;;;;;4996279;28;20030;-77
2022/10/17 04:16:36;;;;;;;13.32;9.18;;;;;;;;;;5005814;28;20410;-77
2022/10/17 04:19:02;;;;;;;15.55;9.52;;;;;;;;;;5002841;28;20022;-77
2022/10/17 04:21:29;;;;;;;15.10;9.20;;;;;;;;;;4999326;28;20437;-78
2022/10/17 04:23:55;;;;;;;12.55;8.98;;;;;;;;;;5002626;28;20026;-78
2022/10/17 04:26:22;;;;;;;16.63;8.93;;;;;;;;;;4995511;28;20006;-77
2022/10/17 04:28:48;;;;;;;20.38;9.55;;;;;;;;;;5015368;28;20041;-79
2022/10/17 04:31:14;;;;;;;15.82;9.25;;;;;;;;;;5007661;28;20077;-77
2022/10/17 04:33:41;;;;;;;14.45;8.52;;;;;;;;;;5012638;28;20031;-77
2022/10/17 04:36:09;;;;;;;15.98;9.23;;;;;;;;;;4997614;28;20392;-77
2022/10/17 04:38:36;;;;;;;16.83;10.45;;;;;;;;;;5006344;28;20351;-77
2022/10/17 04:41:04;;;;;;;13.55;9.45;;;;;;;;;;5008391;28;20469;-77
2022/10/17 04:43:30;;;;;;;17.88;9.25;;;;;;;;;;5002382;28;20027;-77
2022/10/17 04:45:57;;;;;;;16.85;9.77;;;;;;;;;;5000656;28;20142;-77
2022/10/17 04:48:23;;;;;;;16.70;9.10;;;;;;;;;;5000359;28;20026;-77
2022/10/17 04:50:53;;;;;;;15.70;9.70;;;;;;;;;;5008352;28;20076;-77
2022/10/17 04:53:20;;;;;;;13.82;9.23;;;;;;;;;;5006774;28;20014;-77
2022/10/17 04:55:46;;;;;;;17.10;9.77;;;;;;;;;;5007015;28;20026;-77
2022/10/17 04:58:12;;;;;;;19.40;9.23;;;;;;;;;;4991783;28;20481;-77
2022/10/17 05:00:38;;;;;;;17.63;9.35;;;;;;;;;;4988490;28;20118;-79
2022/10/17 05:03:04;;;;;;;15.30;9.07;;;;;;;;;;5007641;28;20080;-78
2022/10/17 05:05:30;;;;;;;14.82;10.57;;;;;;;;;;5001948;28;20097;-78
2022/10/17 05:07:56;;;;;;;18.17;10.35;;;;;;;;;;5000470;28;20141;-78
2022/10/17 05:10:22;;;;;;;17.55;10.00;;;;;;;;;;5008165;28;20033;-78
2022/10/17 05:12:49;;;;;;;18.55;9.98;;;;;;;;;;5011802;28;20021;-78
2022/10/17 05:15:15;;;;;;;13.68;9.10;;;;;;;;;;4998460;28;20049;-77
2022/10/17 05:17:41;;;;;;;13.88;8.85;;;;;;;;;;5002689;28;20049;-80
2022/10/17 05:20:08;;;;;;;15.32;9.90;;;;;;;;;;4994790;28;20019;-77
2022/10/17 05:22:34;;;;;;;12.57;8.75;;;;;;;;;;4994321;28;20038;-77
2022/10/17 05:25:00;;;;;;;12.32;9.30;;;;;;;;;;5007200;28;20025;-77
2022/10/17 05:27:26;;;;;;;17.40;9.90;;;;;;;;;;5011085;28;20038;-77
2022/10/17 05:29:52;;;;;;;14.25;9.20;;;;;;;;;;5014323;28;20054;-79
2022/10/17 05:32:18;;;;;;;14.88;8.98;;;;;;;;;;4984102;28;20022;-78
2022/10/17 05:34:44;;;;;;;18.52;9.95;;;;;;;;;;5004424;28;20456;-77
2022/10/17 05:37:10;;;;;;;14.32;10.00;;;;;;;;;;5003147;28;20026;-77
2022/10/17 05:39:36;;;;;;;13.10;8.98;;;;;;;;;;5009988;28;20042;-77
2022/10/17 05:42:03;;;;;;;13.68;9.57;;;;;;;;;;5013384;28;20033;-77
2022/10/17 05:44:29;;;;;;;19.95;10.10;;;;;;;;;;5013684;28;20381;-77
2022/10/17 05:46:55;;;;;;;18.27;9.93;;;;;;;;;;5013560;28;20127;-77
2022/10/17 05:49:21;;;;;;;17.98;10.38;;;;;;;;;;5013966;28;20048;-77
2022/10/17 05:51:47;;;;;;;15.25;8.98;;;;;;;;;;5013721;28;20457;-77
2022/10/17 05:54:13;;;;;;;16.55;9.55;;;;;;;;;;5013878;28;20072;-77
2022/10/17 05:56:39;;;;;;;14.85;9.90;;;;;;;;;;5013422;28;20021;-79
2022/10/17 05:59:05;;;;;;;15.80;9.50;;;;;;;;;;4978185;28;20092;-77
2022/10/17 06:01:31;;;;;;;16.58;9.80;;;;;;;;;;5013577;28;20030;-78
2022/10/17 06:03:57;;;;;;;21.17;10.30;;;;;;;;;;4995717;28;20057;-79
2022/10/17 06:06:23;;;;;;;16.50;9.77;;;;;;;;;;5006708;28;20460;-77
2022/10/17 06:08:49;;;;;;;13.20;9.68;;;;;;;;;;4992538;28;20081;-79
2022/10/17 06:11:15;;;;;;;15.60;9.95;;;;;;;;;;4993051;28;20030;-77
2022/10/17 06:13:41;;;;;;;16.00;10.07;;;;;;;;;;5006920;28;20132;-72
2022/10/17 06:16:07;;;;;;;16.13;10.13;;;;;;;;;;5012930;28;20112;-72
2022/10/17 06:18:34;;;;;;;14.27;9.65;;;;;;;;;;5005397;28;20077;-72
2022/10/17 06:21:04;;;;;;;13.38;9.10;;;;;;;;;;5000535;28;20061;-72
2022/10/17 06:23:30;;;;;;;16.52;10.55;;;;;;;;;;5004421;28;20080;-72
2022/10/17 06:26:00;;;;;;;18.70;10.80;;;;;;;;;;5002846;28;20494;-73
2022/10/17 06:28:26;;;;;;;18.27;9.43;;;;;;;;;;5005086;28;20034;-74
2022/10/17 06:30:52;;;;;;;16.00;10.15;;;;;;;;;;5008914;28;20057;-74
2022/10/17 06:33:19;;;;;;;14.35;9.93;;;;;;;;;;4993512;28;20034;-74
2022/10/17 06:35:50;;;;;;;25.15;10.82;;;;;;;;;;5006310;28;20496;-74
2022/10/17 06:38:16;;;;;;;14.95;8.93;;;;;;;;;;5009346;28;20030;-76
2022/10/17 06:40:42;;;;;;;20.05;9.68;;;;;;;;;;5005003;28;20373;-78
2022/10/17 06:43:08;;;;;;;13.43;9.23;;;;;;;;;;5003268;28;20376;-76
2022/10/17 06:45:34;;;;;;;15.60;9.43;;;;;;;;;;5003035;28;20750;-76
2022/10/17 06:48:01;;;;;;;19.40;9.38;;;;;;;;;;5003666;28;20042;-76
2022/10/17 06:50:27;;;;;;;15.10;9.90;;;;;;;;;;5007171;28;20377;-76
2022/10/17 06:52:53;;;;;;;15.43;9.80;;;;;;;;;;5008631;28;20038;-76
2022/10/17 06:55:19;;;;;;;15.93;10.00;;;;;;;;;;5003419;28;20022;-76
2022/10/17 06:57:45;;;;;;;18.65;9.25;;;;;;;;;;4991254;28;20041;-76
2022/10/17 07:00:12;;;;;;;18.42;9.85;;;;;;;;;;5006891;28;20076;-76
2022/10/17 07:02:38;;;;;;;16.80;8.98;;;;;;;;;;4994424;28;20034;-76
2022/10/17 07:05:04;;;;;;;21.77;9.93;;;;;;;;;;4988362;28;20083;-76
2022/10/17 07:07:31;;;;;;;19.83;9.90;;;;;;;;;;5002778;28;20031;-75
2022/10/17 07:09:58;;;;;;;17.02;9.43;;;;;;;;;;4986305;28;20452;-75
2022/10/17 07:12:24;;;;;;;16.35;9.80;;;;;;;;;;4998337;28;20127;-75
2022/10/17 07:14:50;;;;;;;18.02;9.48;;;;;;;;;;4998499;28;20511;-76
2022/10/17 07:17:20;;;;;;;19.77;9.05;;;;;;;;;;4994072;28;20519;-75
2022/10/17 07:19:46;;;;;;;11.95;8.85;;;;;;;;;;4998129;28;20038;-76
2022/10/17 07:22:12;;;;;;;13.82;8.18;;;;;;;;;;5000363;28;20026;-76
2022/10/17 07:24:38;;;;;;;18.52;9.00;;;;;;;;;;5006449;28;20096;-76
2022/10/17 07:27:04;;;;;;;12.77;8.68;;;;;;;;;;5010076;28;20034;-76
2022/10/17 07:29:30;;;;;;;17.83;10.85;;;;;;;;;;4993638;28;20499;-76
2022/10/17 07:31:56;;;;;;;16.27;9.93;;;;;;;;;;5004868;28;20737;-76
2022/10/17 07:34:26;;;;;;;17.48;9.68;;;;;;;;;;5000507;28;20186;-76
2022/10/17 07:36:52;;;;;;;21.08;10.02;;;;;;;;;;4998551;28;20393;-76
2022/10/17 07:39:18;;;;;;;15.77;9.48;;;;;;;;;;4991050;28;20030;-79
2022/10/17 07:41:44;;;;;;;16.15;9.20;;;;;;;;;;4992461;28;20110;-76
2022/10/17 07:44:10;;;;;;;19.15;11.70;;;;;;;;;;4996237;28;20022;-76
2022/10/17 07:46:36;;;;;;;18.27;11.82;;;;;;;;;;4994665;28;20030;-76
2022/10/17 07:49:02;;;;;;;22.85;11.73;;;;;;;;;;4994107;28;20542;-77
2022/10/17 07:51:28;;;;;;;25.65;13.35;;;;;;;;;;4994364;28;20366;-76
2022/10/17 07:53:54;;;;;;;21.83;13.18;;;;;;;;;;5011624;28;20460;-76
2022/10/17 07:56:23;;;;;;;19.42;12.40;;;;;;;;;;5011938;28;20025;-76
2022/10/17 07:58:49;;;;;;;21.90;14.02;;;;;;;;;;4993915;28;20421;-76
2022/10/17 08:01:16;;;;;;;31.65;21.35;;;;;;;;;;5011395;28;20096;-76
2022/10/17 08:03:47;;;;;;;18.80;11.43;;;;;;;;;;4994050;28;20022;-76
2022/10/17 08:06:13;;;;;;;14.68;9.52;;;;;;;;;;4984377;28;20069;-76
2022/10/17 08:08:40;;;;;;;20.08;9.10;;;;;;;;;;5006608;28;20022;-76
2022/10/17 08:11:07;;;;;;;16.27;8.90;;;;;;;;;;5010683;28;20025;-76
2022/10/17 08:13:34;;;;;;;16.42;9.13;;;;;;;;;;5011968;28;20029;-76
2022/10/17 08:16:04;;;;;;;13.52;8.57;;;;;;;;;;5011613;28;20030;-76
2022/10/17 08:18:30;;;;;;;15.32;9.77;;;;;;;;;;5011887;28;20116;-76
2022/10/17 08:21:00;;;;;;;16.83;12.48;;;;;;;;;;5011759;28;20060;-76
2022/10/17 08:23:27;;;;;;;16.58;11.27;;;;;;;;;;5011466;28;20095;-76
2022/10/17 08:25:53;;;;;;;15.05;10.18;;;;;;;;;;5011833;28;20018;-76
2022/10/17 08:28:19;;;;;;;19.45;9.95;;;;;;;;;;5011892;28;20172;-76
2022/10/17 08:30:45;;;;;;;17.60;9.77;;;;;;;;;;5011583;28;20034;-75
2022/10/17 08:33:11;;;;;;;14.43;10.00;;;;;;;;;;5011546;28;20461;-76
2022/10/17 08:35:37;;;;;;;17.15;9.77;;;;;;;;;;5011725;28;20022;-76
2022/10/17 08:38:03;;;;;;;21.65;11.40;;;;;;;;;;5011523;28;20372;-76
2022/10/17 08:40:32;;;;;;;17.95;10.32;;;;;;;;;;5011503;28;20053;-76
2022/10/17 08:43:04;;;;;;;17.90;11.25;;;;;;;;;;5011502;28;20135;-76
2022/10/17 08:45:36;;;;;;;20.02;10.35;;;;;;;;;;5011278;28;20080;-76
2022/10/17 08:48:05;;;;;;;19.92;11.23;;;;;;;;;;5011269;28;20026;-76
2022/10/17 08:50:34;;;;;;;19.20;11.13;;;;;;;;;;5011269;28;20018;-76
2022/10/17 08:53:20;;;;;;;17.42;10.68;;;;;;;;;;5011146;28;20520;-76
2022/10/17 08:55:47;;;;;;;16.75;10.48;;;;;;;;;;5010538;28;20038;-76
2022/10/17 08:58:15;;;;;;;23.80;11.25;;;;;;;;;;5011176;28;20022;-75
2022/10/17 09:00:45;;;;;;;18.95;11.02;;;;;;;;;;5011068;28;20033;-75
2022/10/17 09:03:23;;;;;;;14.93;10.75;;;;;;;;;;5010976;28;20022;-76
2022/10/17 09:05:55;;;;;;;17.42;10.30;;;;;;;;;;5002195;28;20067;-75
2022/10/17 09:08:21;;;;;;;21.45;11.25;;;;;;;;;;4991297;28;20045;-76
2022/10/17 09:10:47;;;;;;;20.05;11.88;;;;;;;;;;4991577;28;20026;-75
2022/10/17 09:13:13;;;;;;;19.60;10.68;;;;;;;;;;4992456;28;20029;-75
2022/10/17 09:15:39;;;;;;;22.52;10.65;;;;;;;;;;4994653;28;20022;-75
2022/10/17 09:18:08;;;;;;;19.85;11.52;;;;;;;;;;4994901;28;20030;-76
2022/10/17 09:21:00;;;;;;;18.55;9.95;;;;;;;;;;4992823;28;20057;-76
2022/10/17 09:23:31;;;;;;;17.10;9.65;;;;;;;;;;4977564;28;20022;-75
2022/10/17 09:25:59;;;;;;;14.93;9.73;;;;;;;;;;5013608;28;20026;-75
2022/10/17 09:28:25;;;;;;;18.27;11.40;;;;;;;;;;5012171;28;21357;-74
2022/10/17 09:31:05;;;;;;;20.23;11.02;;;;;;;;;;5012941;28;20042;-75
2022/10/17 09:33:38;;;;;;;16.35;10.95;;;;;;;;;;4995615;28;20041;-75
2022/10/17 09:36:08;;;;;;;22.60;12.50;;;;;;;;;;4993559;28;20490;-75
2022/10/17 09:38:37;;;;;;;22.67;12.48;;;;;;;;;;5005445;28;20386;-75
2022/10/17 09:41:03;;;;;;;21.63;11.80;;;;;;;;;;5001514;28;20452;-75
2022/10/17 09:43:29;;;;;;;15.95;10.63;;;;;;;;;;4993124;28;20027;-76
2022/10/17 09:46:13;;;;;;;18.13;11.27;;;;;;;;;;5012268;28;20040;-75
2022/10/17 09:48:45;;;;;;;24.38;12.75;;;;;;;;;;5013538;28;20357;-75
2022/10/17 09:51:11;;;;;;;;;;;;;;;;;;5014002;28;20041;-75
2022/10/17 09:53:38;;;;;;;15.45;10.30;;;;;;;;;;5010128;28;19914;-75
2022/10/17 09:56:08;;;;;;;14.90;9.95;;;;;;;;;;4993927;28;20404;-75
2022/10/17 09:58:41;;;;;;;15.25;10.32;;;;;;;;;;4993791;28;20030;-75
2022/10/17 10:01:17;;;;;;;19.92;11.05;;;;;;;;;;4994079;28;20027;-75
2022/10/17 10:03:44;;;;;;;18.08;10.38;;;;;;;;;;4994240;28;20026;-75
2022/10/17 10:06:12;;;;;;;22.45;10.70;;;;;;;;;;5001841;28;20077;-76
2022/10/17 10:08:48;;;;;;;15.27;9.50;;;;;;;;;;5008090;28;20025;-75
2022/10/17 10:11:16;;;;;;;21.60;11.60;;;;;;;;;;5010167;28;20037;-75
2022/10/17 10:13:42;;;;;;;15.23;10.13;;;;;;;;;;4993558;28;20121;-75
2022/10/17 10:16:27;;;;;;;15.40;9.43;;;;;;;;;;4993813;28;20093;-76
2022/10/17 10:18:53;;;;;;;18.65;10.07;;;;;;;;;;5001431;28;20511;-75
2022/10/17 10:21:21;;;;;;;15.30;9.50;;;;;;;;;;5008134;28;20079;-75
2022/10/17 10:24:10;;;;;;;16.98;9.80;;;;;;;;;;5007305;28;20026;-75
2022/10/17 10:26:42;;;;;;;15.25;9.27;;;;;;;;;;4993308;28;20029;-75
2022/10/17 10:29:29;;;;;;;13.57;9.27;;;;;;;;;;4993994;28;20022;-75
2022/10/17 10:31:56;;;;;;;20.58;10.68;;;;;;;;;;4993401;28;20304;-76
2022/10/17 10:34:24;;;;;;;15.38;9.05;;;;;;;;;;4992181;28;20140;-76
2022/10/17 10:36:50;;;;;;;13.73;8.75;;;;;;;;;;4993724;28;20105;-76
2022/10/17 10:39:30;;;;;;;15.07;9.55;;;;;;;;;;4975844;28;20042;-76
2022/10/17 10:41:56;;;;;;;16.00;9.88;;;;;;;;;;4993720;28;20080;-76
2022/10/17 10:44:25;;;;;;;15.25;8.45;;;;;;;;;;5010938;28;20380;-76
2022/10/17 10:47:10;;;;;;;14.05;10.27;;;;;;;;;;5013038;28;20105;-76
2022/10/17 10:49:37;;;;;;;12.35;8.73;;;;;;;;;;5012957;28;20127;-76
2022/10/17 10:52:04;;;;;;;14.57;8.90;;;;;;;;;;5012948;28;20025;-76
2022/10/17 10:54:36;;;;;;;15.98;10.00;;;;;;;;;;5013208;28;20125;-76
2022/10/17 10:57:02;;;;;;;;;;;;;;;;;;5013391;28;20033;-76
2022/10/17 10:59:42;;;;;;;15.23;9.63;;;;;;;;;;5013173;28;20004;-76
2022/10/17 11:02:08;;;;;;;15.88;9.50;;;;;;;;;;5013257;28;20448;-76
2022/10/17 11:04:41;;;;;;;15.80;8.57;;;;;;;;;;5007247;28;20096;-76
2022/10/17 11:07:39;;;;;;;16.55;10.05;;;;;;;;;;4998654;28;20023;-76
2022/10/17 11:10:14;;;;;;;16.92;8.85;;;;;;;;;;4957794;28;20041;-76
2022/10/17 11:12:53;;;;;;;17.55;8.60;;;;;;;;;;4999405;28;20026;-76
2022/10/17 11:15:46;;;;;;;18.98;9.07;;;;;;;;;;5001629;28;20021;-76
2022/10/17 11:18:22;;;;;;;11.63;7.60;;;;;;;;;;5004675;28;20157;-76
2022/10/17 11:21:07;;;;;;;12.50;8.30;;;;;;;;;;4984541;28;20034;-76
2022/10/17 11:23:54;;;;;;;11.77;7.35;;;;;;;;;;5002508;28;20014;-76
2022/10/17 11:26:25;;;;;;;11.60;7.55;;;;;;;;;;5002742;28;20465;-76
2022/10/17 11:28:53;;;;;;;12.27;8.05;;;;;;;;;;5003144;28;20053;-76
2022/10/17 11:31:20;;;;;;;13.68;8.07;;;;;;;;;;5002797;28;20030;-76
2022/10/17 11:33:52;;;;;;;15.35;8.93;;;;;;;;;;5000975;28;20092;-76
2022/10/17 11:36:21;;;;;;;13.88;8.52;;;;;;;;;;4998871;28;20079;-76
2022/10/17 11:38:53;;;;;;;16.77;8.35;;;;;;;;;;5000150;28;20109;-76
2022/10/17 11:41:19;;;;;;;;;;;;;;;;;;5000154;28;20034;-76
2022/10/17 11:43:53;;;;;;;16.73;7.57;;;;;;;;;;4993920;28;20369;-76
2022/10/17 11:46:23;;;;;;;12.18;7.43;;;;;;;;;;4998842;28;20538;-76
2022/10/17 11:48:58;;;;;;;13.43;7.97;;;;;;;;;;5003259;28;20440;-76
2022/10/17 11:51:24;;;;;;;13.10;7.97;;;;;;;;;;5002024;28;20045;-76
2022/10/17 11:53:54;;;;;;;9.95;7.88;;;;;;;;;;5001515;28;20034;-76
2022/10/17 11:56:40;;;;;;;13.35;7.05;;;;;;;;;;5000605;28;20472;-76
2022/10/17 11:59:19;;;;;;;11.55;7.55;;;;;;;;;;4999989;28;20034;-76
2022/10/17 12:01:52;;;;;;;12.98;7.68;;;;;;;;;;5002731;28;20022;-76
2022/10/17 12:04:34;;;;;;;13.20;7.50;;;;;;;;;;5008974;28;20026;-76
2022/10/17 12:07:27;;;;;;;12.13;7.53;;;;;;;;;;4988680;28;20377;-76
2022/10/17 12:09:59;;;;;;;12.45;8.00;;;;;;;;;;4995913;28;20073;-76
2022/10/17 12:12:29;;;;;;;11.75;8.00;;;;;;;;;;5003276;28;20045;-76
2022/10/17 12:15:14;;;;;;;14.57;8.63;;;;;;;;;;4997559;28;20096;-76
2022/10/17 12:17:42;;;;;;;13.77;7.57;;;;;;;;;;5010182;28;20555;-76
2022/10/17 12:20:24;;;;;;;11.93;7.60;;;;;;;;;;5000242;28;20469;-76
2022/10/17 12:22:59;;;;;;;11.98;8.07;;;;;;;;;;4979236;28;20053;-75
2022/10/17 12:25:32;;;;;;;11.75;8.25;;;;;;;;;;4991781;28;20137;-76
2022/10/17 12:28:12;;;;;;;10.75;7.38;;;;;;;;;;4991971;28;20030;-76
2022/10/17 12:30:48;;;;;;;9.60;7.22;;;;;;;;;;4997087;28;20122;-75
2022/10/17 12:33:21;;;;;;;16.33;8.38;;;;;;;;;;5004393;28;20384;-75
2022/10/17 12:35:49;;;;;;;9.98;6.70;;;;;;;;;;5011586;28;20786;-76
2022/10/17 12:38:23;;;;;;;10.70;6.75;;;;;;;;;;5011438;28;20026;-76
2022/10/17 12:40:51;;;;;;;12.40;8.02;;;;;;;;;;5011203;28;20042;-75
2022/10/17 12:43:17;;;;;;;10.55;7.40;;;;;;;;;;4993788;28;20049;-78
2022/10/17 12:45:46;;;;;;;12.73;7.47;;;;;;;;;;5012058;28;20022;-78
2022/10/17 12:48:13;;;;;;;10.82;6.85;;;;;;;;;;5013127;28;20018;-81
2022/10/17 12:50:58;;;;;;;10.80;7.88;;;;;;;;;;5015597;28;20034;-81
2022/10/17 12:53:27;;;;;;;11.77;7.28;;;;;;;;;;5015671;28;20041;-81
2022/10/17 12:55:59;;;;;;;12.20;8.32;;;;;;;;;;5015737;28;20072;-82
2022/10/17 12:58:25;;;;;;;14.25;8.30;;;;;;;;;;5015576;28;20066;-81
2022/10/17 13:00:51;;;;;;;12.35;8.07;;;;;;;;;;5015656;28;20054;-81
2022/10/17 13:03:23;;;;;;;13.25;8.68;;;;;;;;;;5015456;28;20026;-79
2022/10/17 13:05:53;;;;;;;17.27;9.75;;;;;;;;;;5014841;28;20519;-80
2022/10/17 13:08:25;;;;;;;12.95;9.20;;;;;;;;;;5015183;28;20482;-79
2022/10/17 13:10:53;;;;;;;15.55;8.82;;;;;;;;;;5015071;28;20030;-79
2022/10/17 13:13:22;;;;;;;12.63;9.15;;;;;;;;;;5015259;28;20030;-80
2022/10/17 13:15:52;;;;;;;11.95;8.13;;;;;;;;;;5015188;28;20029;-80
2022/10/17 13:18:24;;;;;;;11.75;8.18;;;;;;;;;;4997173;28;20099;-80
2022/10/17 13:20:59;;;;;;;12.52;8.23;;;;;;;;;;5014928;28;20026;-80
2022/10/17 13:23:26;;;;;;;12.23;8.75;;;;;;;;;;4997392;28;20361;-81
2022/10/17 13:26:04;;;;;;;16.52;8.90;;;;;;;;;;5015068;28;20372;-80
2022/10/17 13:28:30;;;;;;;10.93;8.57;;;;;;;;;;5015361;28;20334;-80
2022/10/17 13:30:56;;;;;;;11.77;8.82;;;;;;;;;;5010756;28;20108;-77
2022/10/17 13:33:37;;;;;;;14.85;8.93;;;;;;;;;;5011501;28;20100;-77
2022/10/17 13:36:06;;;;;;;10.73;8.37;;;;;;;;;;4993901;28;20041;-77
2022/10/17 13:38:33;;;;;;;12.95;8.52;;;;;;;;;;4994867;28;20354;-77
2022/10/17 13:41:00;;;;;;;11.10;7.60;;;;;;;;;;4995396;28;20038;-80
2022/10/17 13:43:26;;;;;;;12.07;8.43;;;;;;;;;;5001328;28;20026;-80
2022/10/17 13:45:53;;;;;;;14.55;8.80;;;;;;;;;;5000282;28;20025;-80
2022/10/17 13:48:21;;;;;;;12.23;8.57;;;;;;;;;;5029579;28;20109;-81
2022/10/17 13:50:49;;;;;;;10.73;8.82;;;;;;;;;;5034342;28;20021;-81
2022/10/17 13:53:17;;;;;;;11.50;8.95;;;;;;;;;;5030633;28;20485;-81
2022/10/17 13:56:02;;;;;;;13.02;9.20;;;;;;;;;;5014668;28;20018;-80
2022/10/17 13:58:38;;;;;;;12.38;9.18;;;;;;;;;;5014588;28;20481;-81
2022/10/17 14:01:08;;;;;;;11.30;8.45;;;;;;;;;;5013656;28;20049;-80
2022/10/17 14:03:34;;;;;;;14.18;9.05;;;;;;;;;;4997308;28;20105;-80
2022/10/17 14:06:08;;;;;;;14.07;8.68;;;;;;;;;;5014247;28;20037;-80
2022/10/17 14:08:34;;;;;;;11.88;8.70;;;;;;;;;;5009963;28;20025;-80
2022/10/17 14:11:01;;;;;;;10.63;8.27;;;;;;;;;;5014321;28;20077;-80
2022/10/17 14:13:29;;;;;;;13.07;8.23;;;;;;;;;;5014214;28;20053;-80
2022/10/17 14:15:56;;;;;;;14.38;8.63;;;;;;;;;;5008914;28;20018;-80
2022/10/17 14:18:24;;;;;;;13.23;7.72;;;;;;;;;;4994707;28;20089;-81
2022/10/17 14:20:51;;;;;;;17.33;8.93;;;;;;;;;;4994591;28;20022;-82
2022/10/17 14:23:36;;;;;;;13.00;8.55;;;;;;;;;;4994768;28;20026;-80
2022/10/17 14:26:05;;;;;;;9.90;8.10;;;;;;;;;;4995169;28;20072;-77
2022/10/17 14:28:31;;;;;;;11.05;7.47;;;;;;;;;;4998061;28;20431;-81
2022/10/17 14:31:10;;;;;;;11.95;7.00;;;;;;;;;;5009412;28;20143;-81
2022/10/17 14:33:36;;;;;;;9.65;6.85;;;;;;;;;;5003279;28;20083;-82
2022/10/17 14:36:04;;;;;;;12.02;6.57;;;;;;;;;;5001962;28;20060;-80
2022/10/17 14:38:30;;;;;;;8.63;6.70;;;;;;;;;;5002652;28;20135;-81
2022/10/17 14:40:56;;;;;;;11.85;7.55;;;;;;;;;;5004107;28;20125;-81